createdAt,value
2022-09-27T00:02:10.604Z,77.12
2022-09-27T00:04:38.882Z,78.27
2022-09-27T00:07:07.447Z,78.28
2022-09-27T00:09:36.218Z,78.47
2022-09-27T00:12:04.594Z,78.18
2022-09-27T00:14:32.823Z,77.90
2022-09-27T00:17:01.068Z,77.72
2022-09-27T00:19:30.824Z,78.34
2022-09-27T00:21:59.014Z,78.39
2022-09-27T00:24:27.284Z,77.89
2022-09-27T00:26:55.505Z,77.91
2022-09-27T00:29:23.753Z,78.14
2022-09-27T00:31:51.968Z,78.21
2022-09-27T00:34:22.067Z,77.71
2022-09-27T00:36:52.143Z,78.01
2022-09-27T00:39:20.546Z,78.29
2022-09-27T00:41:48.718Z,78.52
2022-09-27T00:44:59.532Z,78.38
2022-09-27T00:47:34.137Z,78.44
2022-09-27T00:50:07.244Z,78.92
2022-09-27T00:52:44.471Z,78.56
2022-09-27T00:55:17.387Z,78.61
2022-09-27T00:57:47.379Z,78.44
2022-09-27T01:00:17.191Z,77.91
2022-09-27T01:02:49.500Z,77.97
2022-09-27T01:05:21.166Z,77.62
2022-09-27T01:07:50.733Z,77.27
2022-09-27T01:10:20.405Z,78.15
2022-09-27T01:13:00.686Z,78.32
2022-09-27T01:15:37.010Z,77.58
2022-09-27T01:18:31.198Z,77.85
2022-09-27T01:21:27.578Z,76.88
2022-09-27T01:24:37.631Z,76.86
2022-09-27T01:27:40.793Z,77.16
2022-09-27T01:30:22.583Z,77.17
2022-09-27T01:32:57.175Z,77.48
2022-09-27T01:35:32.234Z,78.44
2022-09-27T01:38:09.903Z,79.10
2022-09-27T01:40:44.758Z,79.82
2022-09-27T01:43:18.128Z,79.11
2022-09-27T01:45:54.654Z,78.90
2022-09-27T01:48:24.723Z,78.45
2022-09-27T01:50:58.530Z,78.28
2022-09-27T01:53:33.213Z,77.76
2022-09-27T01:56:06.254Z,77.49
2022-09-27T01:58:40.993Z,76.70
2022-09-27T02:01:12.547Z,76.16
2022-09-27T02:03:44.792Z,76.40
2022-09-27T02:06:17.526Z,76.51
2022-09-27T02:08:52.405Z,76.02
2022-09-27T02:11:20.814Z,75.43
2022-09-27T02:13:54.965Z,74.82
2022-09-27T02:16:34.541Z,74.56
2022-09-27T02:19:11.697Z,74.37
2022-09-27T02:21:45.978Z,74.16
2022-09-27T02:24:21.031Z,73.77
2022-09-27T02:26:55.803Z,73.82
2022-09-27T02:29:29.387Z,73.63
2022-09-27T02:31:59.028Z,73.54
2022-09-27T02:34:31.597Z,73.42
2022-09-27T02:37:01.094Z,73.11
2022-09-27T02:39:30.000Z,73.17
2022-09-27T02:42:00.190Z,73.77
2022-09-27T02:44:30.438Z,74.01
2022-09-27T02:47:14.597Z,73.98
2022-09-27T02:49:56.585Z,73.87
2022-09-27T02:52:34.401Z,73.68
2022-09-27T02:55:13.190Z,73.90
2022-09-27T02:57:54.675Z,74.06
2022-09-27T03:00:26.411Z,73.72
2022-09-27T03:03:04.267Z,73.99
2022-09-27T03:05:38.012Z,74.09
2022-09-27T03:08:07.541Z,74.64
2022-09-27T03:10:35.878Z,74.79
2022-09-27T03:13:05.059Z,74.21
2022-09-27T03:15:33.221Z,74.43
2022-09-27T03:18:02.846Z,75.57
2022-09-27T03:20:31.604Z,76.43
2022-09-27T03:22:59.871Z,74.75
2022-09-27T03:25:28.132Z,74.55
2022-09-27T03:27:56.381Z,74.38
2022-09-27T03:30:24.508Z,74.88
2022-09-27T03:32:52.768Z,74.75
2022-09-27T03:35:22.728Z,75.03
2022-09-27T03:37:50.910Z,75.01
2022-09-27T03:40:19.263Z,75.00
2022-09-27T03:42:50.020Z,75.54
2022-09-27T03:45:18.892Z,75.96
2022-09-27T03:47:47.199Z,76.26
2022-09-27T03:50:15.998Z,78.88
2022-09-27T03:52:45.801Z,84.71
2022-09-27T03:55:14.499Z,87.83
2022-09-27T03:57:46.577Z,90.40
2022-09-27T04:00:15.840Z,90.13
2022-09-27T04:02:44.509Z,90.86
2022-09-27T04:05:13.838Z,90.67
2022-09-27T04:07:42.045Z,91.29
2022-09-27T04:10:11.788Z,90.38
2022-09-27T04:12:41.827Z,91.25
2022-09-27T04:15:11.371Z,92.29
2022-09-27T04:17:42.015Z,92.59
2022-09-27T04:20:10.931Z,90.68
2022-09-27T04:22:41.472Z,87.77
2022-09-27T04:25:11.847Z,86.15
2022-09-27T04:27:40.069Z,84.48
2022-09-27T04:30:09.746Z,83.26
2022-09-27T04:32:42.660Z,82.24
2022-09-27T04:35:28.538Z,81.17
2022-09-27T04:37:57.647Z,80.19
2022-09-27T04:40:27.660Z,79.92
2022-09-27T04:42:58.034Z,79.31
2022-09-27T04:45:26.333Z,79.28
2022-09-27T04:47:54.513Z,82.02
2022-09-27T04:50:22.808Z,80.40
2022-09-27T04:52:53.018Z,79.81
2022-09-27T04:55:22.072Z,79.07
2022-09-27T04:57:51.907Z,79.15
2022-09-27T05:00:20.274Z,79.45
2022-09-27T05:02:48.882Z,79.62
2022-09-27T05:05:17.616Z,79.54
2022-09-27T05:07:45.734Z,79.34
2022-09-27T05:10:13.900Z,79.62
2022-09-27T05:12:42.366Z,78.95
2022-09-27T05:15:12.776Z,77.65
2022-09-27T05:17:40.878Z,76.49
2022-09-27T05:20:10.851Z,76.44
2022-09-27T05:22:40.763Z,76.24
2022-09-27T05:25:09.853Z,76.01
2022-09-27T05:27:38.170Z,75.65
2022-09-27T05:30:08.180Z,75.24
2022-09-27T05:32:41.811Z,75.58
2022-09-27T05:35:10.602Z,75.35
2022-09-27T05:37:40.263Z,75.01
2022-09-27T05:40:29.317Z,73.80
2022-09-27T05:42:58.135Z,72.79
2022-09-27T05:45:27.018Z,72.12
2022-09-27T05:47:58.374Z,71.56
2022-09-27T05:50:28.278Z,71.15
2022-09-27T05:52:56.410Z,69.99
2022-09-27T05:55:24.672Z,69.46
2022-09-27T05:57:57.629Z,69.11
2022-09-27T06:00:26.144Z,69.80
2022-09-27T06:03:00.087Z,71.12
2022-09-27T06:05:31.068Z,70.40
2022-09-27T06:08:03.737Z,70.17
2022-09-27T06:10:32.795Z,69.96
2022-09-27T06:13:02.517Z,69.26
2022-09-27T06:15:31.636Z,67.63
2022-09-27T06:18:05.652Z,66.63
2022-09-27T06:20:35.203Z,63.32
2022-09-27T06:23:07.837Z,60.92
2022-09-27T06:25:36.217Z,58.37
2022-09-27T06:28:05.009Z,56.55
2022-09-27T06:30:33.710Z,54.86
2022-09-27T06:33:04.215Z,55.99
2022-09-27T06:35:33.043Z,56.28
2022-09-27T06:38:05.524Z,56.87
2022-09-27T06:40:33.847Z,59.09
2022-09-27T06:43:06.243Z,59.53
2022-09-27T06:45:36.796Z,59.92
2022-09-27T06:48:08.147Z,60.46
2022-09-27T06:50:38.107Z,60.36
2022-09-27T06:53:08.430Z,60.40
2022-09-27T06:55:36.691Z,60.13
2022-09-27T06:58:23.103Z,59.98
2022-09-27T07:00:53.485Z,59.47
2022-09-27T07:03:28.426Z,58.79
2022-09-27T07:06:01.220Z,58.72
2022-09-27T07:08:30.191Z,59.69
2022-09-27T07:11:03.698Z,59.96
2022-09-27T07:13:34.748Z,59.86
2022-09-27T07:16:03.326Z,60.56
2022-09-27T07:18:33.076Z,63.92
2022-09-27T07:21:01.808Z,62.63
2022-09-27T07:23:31.235Z,62.50
2022-09-27T07:26:04.398Z,60.74
2022-09-27T07:28:32.580Z,60.16
2022-09-27T07:31:00.743Z,57.49
2022-09-27T07:33:28.928Z,56.69
2022-09-27T07:35:58.707Z,56.67
2022-09-27T07:38:26.888Z,56.68
2022-09-27T07:40:55.030Z,56.59
2022-09-27T07:43:23.771Z,56.66
2022-09-27T07:45:52.065Z,56.97
2022-09-27T07:48:20.272Z,56.61
2022-09-27T07:50:48.388Z,58.53
2022-09-27T07:53:18.477Z,58.67
2022-09-27T07:55:52.061Z,58.98
2022-09-27T07:58:20.767Z,57.46
2022-09-27T08:00:49.000Z,55.84
2022-09-27T08:03:18.683Z,56.64
2022-09-27T08:05:48.363Z,56.75
2022-09-27T08:08:19.004Z,55.65
2022-09-27T08:10:47.276Z,54.67
2022-09-27T08:13:20.401Z,54.49
2022-09-27T08:15:52.615Z,52.99
2022-09-27T08:18:22.147Z,51.89
2022-09-27T08:20:50.353Z,51.91
2022-09-27T08:23:20.022Z,52.72
2022-09-27T08:25:54.273Z,55.43
2022-09-27T08:28:22.831Z,56.37
2022-09-27T08:30:51.955Z,56.99
2022-09-27T08:33:20.361Z,57.02
2022-09-27T08:35:48.542Z,56.56
2022-09-27T08:38:16.642Z,58.89
2022-09-27T08:40:54.800Z,60.15
2022-09-27T08:43:33.265Z,59.90
2022-09-27T08:46:12.697Z,60.00
2022-09-27T08:48:41.403Z,59.31
2022-09-27T08:51:15.215Z,57.90
2022-09-27T08:53:49.602Z,57.39
2022-09-27T08:56:21.451Z,56.61
2022-09-27T08:58:54.089Z,55.79
2022-09-27T09:01:27.844Z,53.73
2022-09-27T09:03:59.420Z,54.56
2022-09-27T09:06:30.528Z,54.91
2022-09-27T09:09:12.102Z,53.42
2022-09-27T09:12:13.480Z,52.30
2022-09-27T09:15:16.083Z,52.25
2022-09-27T09:17:58.628Z,55.10
2022-09-27T09:20:42.900Z,55.38
2022-09-27T09:23:34.716Z,57.15
2022-09-27T09:26:09.627Z,56.53
2022-09-27T09:28:54.645Z,57.24
2022-09-27T09:31:32.041Z,56.27
2022-09-27T09:34:06.599Z,54.28
2022-09-27T09:36:40.012Z,53.10
2022-09-27T09:39:16.908Z,52.49
2022-09-27T09:41:55.380Z,52.58
2022-09-27T09:44:29.334Z,53.99
2022-09-27T09:47:00.797Z,53.96
2022-09-27T09:49:33.063Z,54.73
2022-09-27T09:52:09.134Z,54.27
2022-09-27T09:54:41.737Z,53.48
2022-09-27T09:57:15.459Z,54.29
2022-09-27T09:59:52.922Z,54.35
2022-09-27T10:02:29.544Z,53.41
2022-09-27T10:04:57.969Z,53.60
2022-09-27T10:07:27.457Z,54.38
2022-09-27T10:09:58.411Z,54.33
2022-09-27T10:12:26.904Z,52.86
2022-09-27T10:15:01.076Z,53.25
2022-09-27T10:17:37.125Z,53.39
2022-09-27T10:20:07.428Z,53.22
2022-09-27T10:22:39.151Z,53.25
2022-09-27T10:25:09.503Z,59.25
2022-09-27T10:27:42.182Z,62.13
2022-09-27T10:30:27.951Z,65.64
2022-09-27T10:33:00.420Z,66.39
2022-09-27T10:35:37.753Z,66.66
2022-09-27T10:38:22.750Z,67.49
2022-09-27T10:41:45.925Z,68.63
2022-09-27T10:44:25.399Z,69.18
2022-09-27T10:46:56.979Z,68.46
2022-09-27T10:49:29.254Z,70.36
2022-09-27T10:51:59.902Z,70.47
2022-09-27T10:54:30.200Z,69.96
2022-09-27T10:57:01.594Z,68.96
2022-09-27T10:59:32.513Z,69.53
2022-09-27T11:02:02.442Z,68.29
2022-09-27T11:04:33.642Z,69.06
2022-09-27T11:07:16.492Z,68.40
2022-09-27T11:09:52.873Z,68.45
2022-09-27T11:12:22.934Z,68.98
2022-09-27T11:14:56.766Z,69.97
2022-09-27T11:17:40.903Z,70.81
2022-09-27T11:20:24.147Z,71.93
2022-09-27T11:23:18.156Z,72.06
2022-09-27T11:26:00.278Z,71.29
2022-09-27T11:28:37.575Z,71.71
2022-09-27T11:31:19.442Z,71.66
2022-09-27T11:34:09.250Z,71.64
2022-09-27T11:36:54.689Z,72.16
2022-09-27T11:39:34.646Z,71.46
2022-09-27T11:42:23.829Z,72.06
2022-09-27T11:45:45.350Z,70.97
2022-09-27T11:48:19.649Z,70.68
2022-09-27T11:51:02.495Z,70.59
2022-09-27T11:54:00.372Z,71.92
2022-09-27T11:56:39.718Z,72.72
2022-09-27T11:59:39.500Z,73.31
2022-09-27T12:02:24.548Z,74.01
2022-09-27T12:05:03.036Z,73.11
2022-09-27T12:07:41.838Z,74.61
2022-09-27T12:10:14.667Z,74.04
2022-09-27T12:12:47.844Z,74.16
2022-09-27T12:15:18.587Z,74.29
2022-09-27T12:17:50.373Z,74.72
2022-09-27T12:20:22.749Z,73.38
2022-09-27T12:22:59.467Z,73.26
2022-09-27T12:25:32.983Z,74.02
2022-09-27T12:28:10.323Z,70.61
2022-09-27T12:30:42.999Z,70.36
2022-09-27T12:33:19.917Z,70.23
2022-09-27T12:35:53.709Z,70.56
2022-09-27T12:38:29.304Z,70.51
2022-09-27T12:41:00.872Z,70.55
2022-09-27T12:43:32.028Z,71.73
2022-09-27T12:46:13.231Z,71.88
2022-09-27T12:48:49.067Z,70.05
2022-09-27T12:51:19.946Z,69.72
2022-09-27T12:54:06.074Z,68.01
2022-09-27T12:56:48.776Z,68.89
2022-09-27T12:59:46.041Z,70.40
2022-09-27T13:03:16.458Z,71.91
2022-09-27T13:06:14.294Z,73.52
2022-09-27T13:09:17.532Z,74.99
2022-09-27T13:11:54.114Z,76.26
2022-09-27T13:14:26.586Z,75.92
2022-09-27T13:16:55.092Z,75.45
2022-09-27T13:19:43.145Z,76.08
2022-09-27T13:22:37.939Z,75.69
2022-09-27T13:25:55.522Z,77.75
2022-09-27T13:28:36.519Z,78.90
2022-09-27T13:31:06.777Z,80.64
2022-09-27T13:33:47.216Z,81.85
2022-09-27T13:36:33.728Z,81.87
2022-09-27T13:39:20.021Z,81.73
2022-09-27T13:42:18.217Z,83.80
2022-09-27T13:44:56.751Z,85.14
2022-09-27T13:47:33.451Z,87.07
2022-09-27T13:50:15.069Z,87.33
2022-09-27T13:52:46.436Z,86.41
2022-09-27T13:55:41.451Z,86.46
2022-09-27T13:58:34.248Z,86.78
2022-09-27T14:01:07.608Z,86.84
2022-09-27T14:03:40.673Z,86.87
2022-09-27T14:06:14.943Z,87.76
2022-09-27T14:08:47.352Z,87.66
2022-09-27T14:11:20.164Z,88.32
2022-09-27T14:13:50.675Z,88.73
2022-09-27T14:16:22.141Z,89.24
2022-09-27T14:18:53.340Z,89.72
2022-09-27T14:21:29.866Z,90.96
2022-09-27T14:24:21.318Z,91.29
2022-09-27T14:26:49.965Z,91.44
2022-09-27T14:29:21.995Z,90.26
2022-09-27T14:32:05.103Z,89.59
2022-09-27T14:34:33.333Z,88.57
2022-09-27T14:37:18.825Z,86.73
2022-09-27T14:39:48.032Z,85.98
2022-09-27T14:42:22.363Z,86.87
2022-09-27T14:44:52.993Z,87.90
2022-09-27T14:47:22.954Z,89.70
2022-09-27T14:49:52.696Z,92.27
2022-09-27T14:52:24.411Z,93.75
2022-09-27T14:55:00.919Z,94.29
2022-09-27T14:57:32.857Z,95.73
2022-09-27T15:00:05.010Z,96.41
2022-09-27T15:02:34.072Z,96.16
2022-09-27T15:05:02.366Z,96.14
2022-09-27T15:07:32.615Z,96.02
2022-09-27T15:10:00.828Z,95.91
2022-09-27T15:12:30.743Z,95.82
2022-09-27T15:14:59.611Z,95.53
2022-09-27T15:17:29.305Z,96.08
2022-09-27T15:20:00.177Z,95.21
2022-09-27T15:22:42.676Z,95.04
2022-09-27T15:25:23.641Z,95.74
2022-09-27T15:27:54.568Z,96.11
2022-09-27T15:30:29.857Z,95.80
2022-09-27T15:33:00.210Z,96.57
2022-09-27T15:35:33.390Z,97.15
2022-09-27T15:38:25.222Z,99.16
2022-09-27T15:41:04.162Z,99.68
2022-09-27T15:43:35.987Z,99.33
2022-09-27T15:46:06.163Z,99.54
2022-09-27T15:48:37.783Z,99.55
2022-09-27T15:51:42.353Z,100.00
2022-09-27T15:54:10.444Z,99.24
2022-09-27T15:56:38.953Z,98.97
2022-09-27T15:59:08.069Z,98.44
2022-09-27T16:01:36.202Z,98.34
2022-09-27T16:04:10.064Z,97.35
2022-09-27T16:06:39.486Z,97.76
2022-09-27T16:09:10.665Z,98.03
2022-09-27T16:11:38.818Z,97.81
2022-09-27T16:14:06.888Z,98.01
2022-09-27T16:16:35.647Z,97.87
2022-09-27T16:19:05.289Z,97.69
2022-09-27T16:21:33.419Z,98.36
2022-09-27T16:24:06.207Z,98.71
2022-09-27T16:26:35.465Z,98.92
2022-09-27T16:29:03.608Z,98.93
2022-09-27T16:31:31.937Z,99.19
2022-09-27T16:34:00.509Z,99.11
2022-09-27T16:36:30.190Z,97.36
2022-09-27T16:38:58.303Z,97.02
2022-09-27T16:41:26.523Z,97.16
2022-09-27T16:43:54.639Z,97.49
2022-09-27T16:46:23.350Z,96.62
2022-09-27T16:48:51.659Z,98.41
2022-09-27T16:51:39.864Z,98.16
2022-09-27T16:54:09.787Z,98.74
2022-09-27T16:56:38.309Z,98.39
2022-09-27T16:59:07.118Z,98.64
2022-09-27T17:01:35.656Z,98.42
2022-09-27T17:04:04.161Z,98.13
2022-09-27T17:06:33.202Z,97.69
2022-09-27T17:09:03.849Z,97.79
2022-09-27T17:11:34.735Z,98.03
2022-09-27T17:14:03.659Z,96.85
2022-09-27T17:16:31.903Z,95.04
2022-09-27T17:19:00.030Z,93.37
2022-09-27T17:21:28.139Z,92.27
2022-09-27T17:23:56.711Z,91.17
2022-09-27T17:26:26.961Z,90.44
2022-09-27T17:28:57.378Z,89.60
2022-09-27T17:31:26.510Z,87.77
2022-09-27T17:33:57.826Z,86.43
2022-09-27T17:36:28.238Z,85.93
2022-09-27T17:38:56.450Z,86.66
2022-09-27T17:41:26.148Z,87.03
2022-09-27T17:43:57.987Z,87.62
2022-09-27T17:46:27.995Z,88.02
2022-09-27T17:49:13.851Z,89.92
2022-09-27T17:51:42.971Z,91.19
2022-09-27T17:54:12.531Z,90.29
2022-09-27T17:56:42.516Z,90.66
2022-09-27T17:59:13.458Z,91.67
2022-09-27T18:01:41.630Z,91.90
2022-09-27T18:04:11.713Z,92.38
2022-09-27T18:06:41.993Z,92.46
2022-09-27T18:09:12.055Z,92.18
2022-09-27T18:11:41.137Z,89.43
2022-09-27T18:14:10.759Z,85.79
2022-09-27T18:16:44.002Z,84.20
2022-09-27T18:19:14.308Z,83.19
2022-09-27T18:21:42.441Z,81.09
2022-09-27T18:24:11.859Z,80.31
2022-09-27T18:26:40.762Z,78.72
2022-09-27T18:29:12.131Z,77.95
2022-09-27T18:31:47.377Z,77.06
2022-09-27T18:34:16.932Z,76.84
2022-09-27T18:36:45.569Z,76.58
2022-09-27T18:39:17.450Z,75.37
2022-09-27T18:41:46.662Z,75.21
2022-09-27T18:44:15.706Z,74.90
2022-09-27T18:46:45.316Z,74.75
2022-09-27T18:49:15.458Z,74.92
2022-09-27T18:51:47.101Z,74.85
2022-09-27T18:54:17.370Z,75.05
2022-09-27T18:56:45.662Z,75.30
2022-09-27T18:59:14.483Z,75.52
2022-09-27T19:01:46.374Z,76.48
2022-09-27T19:04:19.243Z,76.35
2022-09-27T19:06:49.771Z,75.14
2022-09-27T19:09:18.019Z,74.29
2022-09-27T19:11:46.457Z,75.02
2022-09-27T19:14:17.679Z,76.41
2022-09-27T19:16:48.296Z,76.54
2022-09-27T19:19:17.237Z,77.50
2022-09-27T19:21:45.905Z,78.77
2022-09-27T19:24:15.891Z,79.82
2022-09-27T19:26:44.370Z,80.19
2022-09-27T19:29:13.024Z,78.82
2022-09-27T19:31:42.569Z,80.05
2022-09-27T19:34:12.474Z,77.78
2022-09-27T19:36:40.652Z,75.60
2022-09-27T19:39:09.562Z,75.26
2022-09-27T19:41:37.951Z,74.54
2022-09-27T19:44:06.804Z,75.02
2022-09-27T19:46:35.027Z,81.03
2022-09-27T19:49:03.153Z,85.00
2022-09-27T19:51:33.455Z,89.88
2022-09-27T19:54:01.547Z,93.45
2022-09-27T19:56:29.655Z,96.47
2022-09-27T19:58:57.767Z,99.45
2022-09-27T20:01:27.001Z,98.03
2022-09-27T20:03:56.910Z,97.09
2022-09-27T20:06:25.013Z,96.83
2022-09-27T20:08:55.911Z,98.01
2022-09-27T20:11:26.353Z,100.00
2022-09-27T20:13:54.661Z,100.00
2022-09-27T20:16:24.543Z,100.00
2022-09-27T20:18:54.158Z,100.00
2022-09-27T20:21:25.279Z,100.00
2022-09-27T20:23:56.588Z,100.00
2022-09-27T20:26:26.671Z,100.00
2022-09-27T20:28:57.108Z,100.00
2022-09-27T20:31:27.368Z,100.00
2022-09-27T20:33:56.158Z,100.00
2022-09-27T20:36:25.784Z,100.00
2022-09-27T20:39:01.983Z,100.00
2022-09-27T20:41:32.629Z,100.00
2022-09-27T20:44:03.661Z,100.00
2022-09-27T20:46:32.092Z,100.00
2022-09-27T20:49:02.898Z,100.00
2022-09-27T20:51:33.390Z,100.00
2022-09-27T20:54:03.277Z,100.00
2022-09-27T20:56:33.321Z,100.00
2022-09-27T20:59:03.717Z,100.00
2022-09-27T21:01:32.418Z,100.00
2022-09-27T21:04:02.493Z,100.00
2022-09-27T21:06:31.633Z,100.00
2022-09-27T21:09:00.766Z,99.39
2022-09-27T21:11:30.470Z,97.49
2022-09-27T21:13:58.698Z,96.57
2022-09-27T21:16:28.537Z,95.72
2022-09-27T21:18:58.904Z,93.60
2022-09-27T21:21:27.646Z,96.55
2022-09-27T21:23:58.226Z,100.00
2022-09-27T21:26:28.187Z,100.00
2022-09-27T21:28:59.353Z,100.00
2022-09-27T21:31:29.983Z,100.00
2022-09-27T21:34:00.425Z,97.55
2022-09-27T21:36:30.972Z,95.84
2022-09-27T21:38:59.593Z,92.87
2022-09-27T21:41:28.906Z,93.15
2022-09-27T21:43:58.721Z,94.64
2022-09-27T21:46:29.337Z,96.23
2022-09-27T21:48:59.212Z,99.77
2022-09-27T21:51:29.337Z,100.00
2022-09-27T21:53:59.122Z,100.00
2022-09-27T21:56:28.503Z,100.00
2022-09-27T21:58:56.663Z,100.00
2022-09-27T22:01:29.565Z,100.00
2022-09-27T22:03:58.695Z,100.00
2022-09-27T22:06:28.974Z,100.00
2022-09-27T22:08:59.281Z,100.00
2022-09-27T22:11:30.443Z,100.00
2022-09-27T22:13:58.558Z,100.00
2022-09-27T22:16:30.346Z,100.00
2022-09-27T22:18:59.315Z,100.00
2022-09-27T22:21:29.584Z,100.00
2022-09-27T22:23:58.894Z,100.00
2022-09-27T22:26:29.462Z,100.00
2022-09-27T22:28:58.640Z,100.00
2022-09-27T22:31:29.055Z,100.00
2022-09-27T22:33:59.759Z,100.00
2022-09-27T22:36:29.056Z,100.00
2022-09-27T22:38:57.866Z,100.00
2022-09-27T22:41:26.646Z,100.00
2022-09-27T22:43:54.760Z,100.00
2022-09-27T22:46:23.403Z,100.00
2022-09-27T22:48:53.121Z,100.00
2022-09-27T22:51:21.230Z,100.00
2022-09-27T22:53:49.588Z,100.00
2022-09-27T22:56:19.810Z,100.00
2022-09-27T22:58:49.131Z,100.00
2022-09-27T23:01:20.327Z,100.00
2022-09-27T23:03:49.627Z,100.00
2022-09-27T23:06:20.894Z,100.00
2022-09-27T23:08:49.668Z,100.00
2022-09-27T23:11:19.347Z,100.00
2022-09-27T23:13:49.051Z,100.00
2022-09-27T23:16:20.367Z,100.00
2022-09-27T23:18:48.836Z,100.00
2022-09-27T23:21:18.665Z,100.00
2022-09-27T23:23:47.539Z,98.95
2022-09-27T23:26:17.440Z,97.73
2022-09-27T23:28:45.733Z,96.46
2022-09-27T23:31:15.549Z,96.12
2022-09-27T23:33:45.708Z,94.66
2022-09-27T23:36:15.324Z,93.15
2022-09-27T23:38:45.953Z,90.02
2022-09-27T23:41:14.252Z,86.14
2022-09-27T23:43:42.870Z,85.30
2022-09-27T23:46:11.660Z,84.71
2022-09-27T23:48:40.152Z,85.56
2022-09-27T23:51:10.524Z,87.78
2022-09-27T23:53:39.373Z,89.78
2022-09-27T23:56:11.957Z,91.79
2022-09-27T23:58:41.791Z,92.86
